sensor_id;sensor_type;location;lat;lon;timestamp;temperature;humidity
17619;DHT22;8928;51.678;6.074;2022-12-24T00:01:04;10.00;99.90
17619;DHT22;8928;51.678;6.074;2022-12-24T00:03:51;10.10;99.90
17619;DHT22;8928;51.678;6.074;2022-12-24T00:06:39;10.10;99.90
17619;DHT22;8928;51.678;6.074;2022-12-24T00:09:26;10.10;99.90
17619;DHT22;8928;51.678;6.074;2022-12-24T00:12:14;10.00;99.90
17619;DHT22;8928;51.678;6.074;2022-12-24T00:15:01;10.10;99.90
17619;DHT22;8928;51.678;6.074;2022-12-24T00:17:48;10.00;99.90
17619;DHT22;8928;51.678;6.074;2022-12-24T00:20:35;10.10;99.90
17619;DHT22;8928;51.678;6.074;2022-12-24T00:23:23;10.00;99.90
17619;DHT22;8928;51.678;6.074;2022-12-24T00:26:10;10.00;99.90
17619;DHT22;8928;51.678;6.074;2022-12-24T00:28:59;10.00;99.90
17619;DHT22;8928;51.678;6.074;2022-12-24T00:31:46;10.00;99.90
17619;DHT22;8928;51.678;6.074;2022-12-24T00:34:33;9.90;99.90
17619;DHT22;8928;51.678;6.074;2022-12-24T00:37:20;9.90;99.90
17619;DHT22;8928;51.678;6.074;2022-12-24T00:40:08;10.00;99.90
17619;DHT22;8928;51.678;6.074;2022-12-24T00:42:55;10.00;99.90
17619;DHT22;8928;51.678;6.074;2022-12-24T00:45:43;9.90;99.90
17619;DHT22;8928;51.678;6.074;2022-12-24T00:48:30;9.90;99.90
17619;DHT22;8928;51.678;6.074;2022-12-24T00:51:19;9.90;99.90
17619;DHT22;8928;51.678;6.074;2022-12-24T00:54:06;9.90;99.90
17619;DHT22;8928;51.678;6.074;2022-12-24T00:56:53;9.90;99.90
17619;DHT22;8928;51.678;6.074;2022-12-24T00:59:41;9.80;99.90
17619;DHT22;8928;51.678;6.074;2022-12-24T01:02:29;9.80;99.90
17619;DHT22;8928;51.678;6.074;2022-12-24T01:05:16;9.80;99.90
17619;DHT22;8928;51.678;6.074;2022-12-24T01:08:05;9.90;99.90
17619;DHT22;8928;51.678;6.074;2022-12-24T01:10:52;9.90;99.90
17619;DHT22;8928;51.678;6.074;2022-12-24T01:13:39;9.90;99.90
17619;DHT22;8928;51.678;6.074;2022-12-24T01:16:26;9.90;99.90
17619;DHT22;8928;51.678;6.074;2022-12-24T01:19:15;9.90;99.90
17619;DHT22;8928;51.678;6.074;2022-12-24T01:22:02;9.90;99.90
17619;DHT22;8928;51.678;6.074;2022-12-24T01:24:49;10.00;99.90
17619;DHT22;8928;51.678;6.074;2022-12-24T01:27:36;10.00;99.90
17619;DHT22;8928;51.678;6.074;2022-12-24T01:30:23;10.00;99.90
17619;DHT22;8928;51.678;6.074;2022-12-24T01:33:10;9.90;99.90
17619;DHT22;8928;51.678;6.074;2022-12-24T01:36:01;9.80;99.90
17619;DHT22;8928;51.678;6.074;2022-12-24T01:38:48;9.80;99.90
17619;DHT22;8928;51.678;6.074;2022-12-24T01:41:35;9.70;99.90
17619;DHT22;8928;51.678;6.074;2022-12-24T01:44:42;9.70;99.90
17619;DHT22;8928;51.678;6.074;2022-12-24T01:47:29;9.70;99.90
17619;DHT22;8928;51.678;6.074;2022-12-24T01:50:16;9.80;99.90
17619;DHT22;8928;51.678;6.074;2022-12-24T01:53:05;9.80;99.90
17619;DHT22;8928;51.678;6.074;2022-12-24T01:55:54;9.90;99.90
17619;DHT22;8928;51.678;6.074;2022-12-24T01:58:46;9.90;99.90
17619;DHT22;8928;51.678;6.074;2022-12-24T02:01:34;10.00;99.90
17619;DHT22;8928;51.678;6.074;2022-12-24T02:04:28;10.00;99.90
17619;DHT22;8928;51.678;6.074;2022-12-24T02:07:16;10.00;99.90
17619;DHT22;8928;51.678;6.074;2022-12-24T02:10:10;10.00;99.90
17619;DHT22;8928;51.678;6.074;2022-12-24T02:12:59;10.00;99.90
17619;DHT22;8928;51.678;6.074;2022-12-24T02:15:59;10.00;99.90
17619;DHT22;8928;51.678;6.074;2022-12-24T02:18:55;9.90;99.90
17619;DHT22;8928;51.678;6.074;2022-12-24T02:21:57;9.90;99.90
17619;DHT22;8928;51.678;6.074;2022-12-24T02:25:17;9.80;99.90
17619;DHT22;8928;51.678;6.074;2022-12-24T02:28:15;9.70;99.90
17619;DHT22;8928;51.678;6.074;2022-12-24T02:31:14;9.60;99.90
17619;DHT22;8928;51.678;6.074;2022-12-24T02:34:05;9.60;99.90
17619;DHT22;8928;51.678;6.074;2022-12-24T02:36:56;9.50;99.90
17619;DHT22;8928;51.678;6.074;2022-12-24T02:39:46;9.50;99.90
17619;DHT22;8928;51.678;6.074;2022-12-24T02:42:38;9.50;99.90
17619;DHT22;8928;51.678;6.074;2022-12-24T02:45:28;9.50;99.90
17619;DHT22;8928;51.678;6.074;2022-12-24T02:48:19;9.50;99.90
17619;DHT22;8928;51.678;6.074;2022-12-24T02:51:09;9.40;99.90
17619;DHT22;8928;51.678;6.074;2022-12-24T02:53:56;9.40;99.90
17619;DHT22;8928;51.678;6.074;2022-12-24T02:56:54;9.30;99.90
17619;DHT22;8928;51.678;6.074;2022-12-24T02:59:58;9.40;99.90
17619;DHT22;8928;51.678;6.074;2022-12-24T03:03:00;9.40;99.90
17619;DHT22;8928;51.678;6.074;2022-12-24T03:06:00;9.40;99.90
17619;DHT22;8928;51.678;6.074;2022-12-24T03:08:59;9.40;99.90
17619;DHT22;8928;51.678;6.074;2022-12-24T03:11:56;9.50;99.90
17619;DHT22;8928;51.678;6.074;2022-12-24T03:14:45;9.50;99.90
17619;DHT22;8928;51.678;6.074;2022-12-24T03:17:36;9.50;99.90
17619;DHT22;8928;51.678;6.074;2022-12-24T03:20:27;9.70;99.90
17619;DHT22;8928;51.678;6.074;2022-12-24T03:23:17;9.70;99.90
17619;DHT22;8928;51.678;6.074;2022-12-24T03:26:06;9.80;99.90
17619;DHT22;8928;51.678;6.074;2022-12-24T03:28:54;9.80;99.90
17619;DHT22;8928;51.678;6.074;2022-12-24T03:31:43;9.80;99.90
17619;DHT22;8928;51.678;6.074;2022-12-24T03:34:30;9.70;99.90
17619;DHT22;8928;51.678;6.074;2022-12-24T03:37:18;9.60;99.90
17619;DHT22;8928;51.678;6.074;2022-12-24T03:40:08;9.50;99.90
17619;DHT22;8928;51.678;6.074;2022-12-24T03:42:55;9.50;99.90
17619;DHT22;8928;51.678;6.074;2022-12-24T03:45:42;9.40;99.90
17619;DHT22;8928;51.678;6.074;2022-12-24T03:48:29;9.30;99.90
17619;DHT22;8928;51.678;6.074;2022-12-24T03:51:17;9.40;99.90
17619;DHT22;8928;51.678;6.074;2022-12-24T03:54:04;9.40;99.90
17619;DHT22;8928;51.678;6.074;2022-12-24T03:56:53;9.40;99.90
17619;DHT22;8928;51.678;6.074;2022-12-24T03:59:40;9.40;99.90
17619;DHT22;8928;51.678;6.074;2022-12-24T04:02:27;9.50;99.90
17619;DHT22;8928;51.678;6.074;2022-12-24T04:05:16;9.60;99.90
17619;DHT22;8928;51.678;6.074;2022-12-24T04:08:04;9.60;99.90
17619;DHT22;8928;51.678;6.074;2022-12-24T04:10:51;9.60;99.90
17619;DHT22;8928;51.678;6.074;2022-12-24T04:13:39;9.60;99.90
17619;DHT22;8928;51.678;6.074;2022-12-24T04:16:26;9.70;99.90
17619;DHT22;8928;51.678;6.074;2022-12-24T04:19:13;9.80;99.90
17619;DHT22;8928;51.678;6.074;2022-12-24T04:22:00;9.90;99.90
17619;DHT22;8928;51.678;6.074;2022-12-24T04:24:47;9.90;99.90
17619;DHT22;8928;51.678;6.074;2022-12-24T04:27:34;9.90;99.90
17619;DHT22;8928;51.678;6.074;2022-12-24T04:30:23;9.90;99.90
17619;DHT22;8928;51.678;6.074;2022-12-24T04:33:10;9.90;99.90
17619;DHT22;8928;51.678;6.074;2022-12-24T04:35:57;9.80;99.90
17619;DHT22;8928;51.678;6.074;2022-12-24T04:38:45;9.90;99.90
17619;DHT22;8928;51.678;6.074;2022-12-24T04:41:32;9.90;99.90
17619;DHT22;8928;51.678;6.074;2022-12-24T04:44:19;9.90;99.90
17619;DHT22;8928;51.678;6.074;2022-12-24T04:47:08;9.90;99.90
17619;DHT22;8928;51.678;6.074;2022-12-24T04:49:55;10.00;99.90
17619;DHT22;8928;51.678;6.074;2022-12-24T04:52:42;10.00;99.90
17619;DHT22;8928;51.678;6.074;2022-12-24T04:55:29;10.10;99.90
17619;DHT22;8928;51.678;6.074;2022-12-24T04:58:16;10.10;99.90
17619;DHT22;8928;51.678;6.074;2022-12-24T05:01:03;10.10;99.90
17619;DHT22;8928;51.678;6.074;2022-12-24T05:03:52;10.10;99.90
17619;DHT22;8928;51.678;6.074;2022-12-24T05:06:40;10.10;99.90
17619;DHT22;8928;51.678;6.074;2022-12-24T05:09:27;10.10;99.90
17619;DHT22;8928;51.678;6.074;2022-12-24T05:12:14;10.20;99.90
17619;DHT22;8928;51.678;6.074;2022-12-24T05:15:01;10.20;99.90
17619;DHT22;8928;51.678;6.074;2022-12-24T05:17:49;10.20;99.90
17619;DHT22;8928;51.678;6.074;2022-12-24T05:20:37;10.30;99.90
17619;DHT22;8928;51.678;6.074;2022-12-24T05:23:26;10.30;99.90
17619;DHT22;8928;51.678;6.074;2022-12-24T05:26:33;10.20;99.90
17619;DHT22;8928;51.678;6.074;2022-12-24T05:29:21;10.10;99.90
17619;DHT22;8928;51.678;6.074;2022-12-24T05:32:08;10.00;99.90
17619;DHT22;8928;51.678;6.074;2022-12-24T05:34:55;9.90;99.90
17619;DHT22;8928;51.678;6.074;2022-12-24T05:37:43;9.90;99.90
17619;DHT22;8928;51.678;6.074;2022-12-24T05:40:30;9.80;99.90
17619;DHT22;8928;51.678;6.074;2022-12-24T05:43:17;9.90;99.90
17619;DHT22;8928;51.678;6.074;2022-12-24T05:46:07;9.90;99.90
17619;DHT22;8928;51.678;6.074;2022-12-24T05:48:54;9.80;99.90
17619;DHT22;8928;51.678;6.074;2022-12-24T05:51:41;9.90;99.90
17619;DHT22;8928;51.678;6.074;2022-12-24T05:54:29;9.90;99.90
17619;DHT22;8928;51.678;6.074;2022-12-24T05:57:16;9.90;99.90
17619;DHT22;8928;51.678;6.074;2022-12-24T06:00:04;9.90;99.90
17619;DHT22;8928;51.678;6.074;2022-12-24T06:02:52;9.90;99.90
17619;DHT22;8928;51.678;6.074;2022-12-24T06:05:39;9.90;99.90
17619;DHT22;8928;51.678;6.074;2022-12-24T06:08:26;9.90;99.90
17619;DHT22;8928;51.678;6.074;2022-12-24T06:11:17;9.90;99.90
17619;DHT22;8928;51.678;6.074;2022-12-24T06:14:04;9.80;99.90
17619;DHT22;8928;51.678;6.074;2022-12-24T06:16:51;9.80;99.90
17619;DHT22;8928;51.678;6.074;2022-12-24T06:19:38;9.70;99.90
17619;DHT22;8928;51.678;6.074;2022-12-24T06:22:25;9.70;99.90
17619;DHT22;8928;51.678;6.074;2022-12-24T06:25:12;9.80;99.90
17619;DHT22;8928;51.678;6.074;2022-12-24T06:28:01;9.80;99.90
17619;DHT22;8928;51.678;6.074;2022-12-24T06:30:49;9.80;99.90
17619;DHT22;8928;51.678;6.074;2022-12-24T06:33:36;9.80;99.90
17619;DHT22;8928;51.678;6.074;2022-12-24T06:36:24;9.80;99.90
17619;DHT22;8928;51.678;6.074;2022-12-24T06:39:11;9.90;99.90
17619;DHT22;8928;51.678;6.074;2022-12-24T06:41:58;9.90;99.90
17619;DHT22;8928;51.678;6.074;2022-12-24T06:44:47;9.80;99.90
17619;DHT22;8928;51.678;6.074;2022-12-24T06:47:34;9.80;99.90
17619;DHT22;8928;51.678;6.074;2022-12-24T06:50:21;9.60;99.90
17619;DHT22;8928;51.678;6.074;2022-12-24T06:53:08;9.60;99.90
17619;DHT22;8928;51.678;6.074;2022-12-24T06:56:00;9.60;99.90
17619;DHT22;8928;51.678;6.074;2022-12-24T06:58:47;9.50;99.90
17619;DHT22;8928;51.678;6.074;2022-12-24T07:01:36;9.50;99.90
17619;DHT22;8928;51.678;6.074;2022-12-24T07:04:23;9.60;99.90
17619;DHT22;8928;51.678;6.074;2022-12-24T07:07:10;9.60;99.90
17619;DHT22;8928;51.678;6.074;2022-12-24T07:09:57;9.60;99.90
17619;DHT22;8928;51.678;6.074;2022-12-24T07:12:44;9.60;99.90
17619;DHT22;8928;51.678;6.074;2022-12-24T07:15:31;9.60;99.90
17619;DHT22;8928;51.678;6.074;2022-12-24T07:18:19;9.50;99.90
17619;DHT22;8928;51.678;6.074;2022-12-24T07:21:06;9.60;99.90
17619;DHT22;8928;51.678;6.074;2022-12-24T07:23:53;9.50;99.90
17619;DHT22;8928;51.678;6.074;2022-12-24T07:26:40;9.40;99.90
17619;DHT22;8928;51.678;6.074;2022-12-24T07:29:27;9.40;99.90
17619;DHT22;8928;51.678;6.074;2022-12-24T07:32:15;9.40;99.90
17619;DHT22;8928;51.678;6.074;2022-12-24T07:35:03;9.50;99.90
17619;DHT22;8928;51.678;6.074;2022-12-24T07:37:51;9.50;99.90
17619;DHT22;8928;51.678;6.074;2022-12-24T07:40:38;9.50;99.90
17619;DHT22;8928;51.678;6.074;2022-12-24T07:43:25;9.50;99.90
17619;DHT22;8928;51.678;6.074;2022-12-24T07:46:12;9.60;99.90
17619;DHT22;8928;51.678;6.074;2022-12-24T07:48:59;9.60;99.90
17619;DHT22;8928;51.678;6.074;2022-12-24T07:51:48;9.60;99.90
17619;DHT22;8928;51.678;6.074;2022-12-24T07:54:35;9.60;99.90
17619;DHT22;8928;51.678;6.074;2022-12-24T07:57:22;9.60;99.90
17619;DHT22;8928;51.678;6.074;2022-12-24T08:00:09;9.50;99.90
17619;DHT22;8928;51.678;6.074;2022-12-24T08:02:56;9.50;99.90
17619;DHT22;8928;51.678;6.074;2022-12-24T08:05:44;9.50;99.90
17619;DHT22;8928;51.678;6.074;2022-12-24T08:08:33;9.50;99.90
17619;DHT22;8928;51.678;6.074;2022-12-24T08:11:20;9.50;99.90
17619;DHT22;8928;51.678;6.074;2022-12-24T08:14:07;9.60;99.90
17619;DHT22;8928;51.678;6.074;2022-12-24T08:16:54;9.60;99.90
17619;DHT22;8928;51.678;6.074;2022-12-24T08:19:41;9.60;99.90
17619;DHT22;8928;51.678;6.074;2022-12-24T08:22:28;9.60;99.90
17619;DHT22;8928;51.678;6.074;2022-12-24T08:25:16;9.60;99.90
17619;DHT22;8928;51.678;6.074;2022-12-24T08:28:04;9.70;99.90
17619;DHT22;8928;51.678;6.074;2022-12-24T08:30:53;9.70;99.90
17619;DHT22;8928;51.678;6.074;2022-12-24T08:33:40;9.70;99.90
17619;DHT22;8928;51.678;6.074;2022-12-24T08:36:27;9.70;99.90
17619;DHT22;8928;51.678;6.074;2022-12-24T08:39:14;9.70;99.90
17619;DHT22;8928;51.678;6.074;2022-12-24T08:42:03;9.60;99.90
17619;DHT22;8928;51.678;6.074;2022-12-24T08:44:50;9.60;99.90
17619;DHT22;8928;51.678;6.074;2022-12-24T08:47:37;9.70;99.90
17619;DHT22;8928;51.678;6.074;2022-12-24T08:50:24;9.70;99.90
17619;DHT22;8928;51.678;6.074;2022-12-24T08:53:13;9.80;99.90
17619;DHT22;8928;51.678;6.074;2022-12-24T08:56:01;9.80;99.90
17619;DHT22;8928;51.678;6.074;2022-12-24T08:58:50;9.90;99.90
17619;DHT22;8928;51.678;6.074;2022-12-24T09:01:37;10.00;99.90
17619;DHT22;8928;51.678;6.074;2022-12-24T09:04:24;10.00;99.90
17619;DHT22;8928;51.678;6.074;2022-12-24T09:07:11;10.10;99.90
17619;DHT22;8928;51.678;6.074;2022-12-24T09:09:58;10.10;99.90
17619;DHT22;8928;51.678;6.074;2022-12-24T09:12:45;10.10;99.90
17619;DHT22;8928;51.678;6.074;2022-12-24T09:15:33;10.20;99.90
17619;DHT22;8928;51.678;6.074;2022-12-24T09:18:21;10.20;99.90
17619;DHT22;8928;51.678;6.074;2022-12-24T09:21:10;10.20;99.90
17619;DHT22;8928;51.678;6.074;2022-12-24T09:23:59;10.20;99.90
17619;DHT22;8928;51.678;6.074;2022-12-24T09:26:46;10.30;99.90
17619;DHT22;8928;51.678;6.074;2022-12-24T09:29:36;10.30;99.90
17619;DHT22;8928;51.678;6.074;2022-12-24T09:32:26;10.40;99.90
17619;DHT22;8928;51.678;6.074;2022-12-24T09:35:13;10.40;99.90
17619;DHT22;8928;51.678;6.074;2022-12-24T09:38:00;10.50;99.90
17619;DHT22;8928;51.678;6.074;2022-12-24T09:40:49;10.50;99.90
17619;DHT22;8928;51.678;6.074;2022-12-24T09:43:36;10.50;99.90
17619;DHT22;8928;51.678;6.074;2022-12-24T09:46:28;10.50;99.90
17619;DHT22;8928;51.678;6.074;2022-12-24T09:49:20;10.50;99.90
17619;DHT22;8928;51.678;6.074;2022-12-24T09:52:11;10.50;99.90
17619;DHT22;8928;51.678;6.074;2022-12-24T09:55:04;10.50;99.90
17619;DHT22;8928;51.678;6.074;2022-12-24T09:57:53;10.50;99.90
17619;DHT22;8928;51.678;6.074;2022-12-24T10:00:41;10.50;99.90
17619;DHT22;8928;51.678;6.074;2022-12-24T10:03:28;10.60;99.90
17619;DHT22;8928;51.678;6.074;2022-12-24T10:06:19;10.70;99.90
17619;DHT22;8928;51.678;6.074;2022-12-24T10:09:13;10.80;99.90
17619;DHT22;8928;51.678;6.074;2022-12-24T10:12:06;10.80;99.90
17619;DHT22;8928;51.678;6.074;2022-12-24T10:15:02;10.80;99.90
17619;DHT22;8928;51.678;6.074;2022-12-24T10:18:03;10.90;99.90
17619;DHT22;8928;51.678;6.074;2022-12-24T10:20:58;11.00;99.90
17619;DHT22;8928;51.678;6.074;2022-12-24T10:23:50;11.10;99.90
17619;DHT22;8928;51.678;6.074;2022-12-24T10:26:43;11.30;99.90
17619;DHT22;8928;51.678;6.074;2022-12-24T10:29:34;11.30;99.90
17619;DHT22;8928;51.678;6.074;2022-12-24T10:32:27;11.30;99.90
17619;DHT22;8928;51.678;6.074;2022-12-24T10:35:21;11.20;99.90
17619;DHT22;8928;51.678;6.074;2022-12-24T10:38:09;11.30;99.90
17619;DHT22;8928;51.678;6.074;2022-12-24T10:40:58;11.30;99.90
17619;DHT22;8928;51.678;6.074;2022-12-24T10:43:47;11.30;99.90
17619;DHT22;8928;51.678;6.074;2022-12-24T10:46:37;11.30;99.90
17619;DHT22;8928;51.678;6.074;2022-12-24T10:49:30;11.30;99.90
17619;DHT22;8928;51.678;6.074;2022-12-24T10:52:20;11.30;99.90
17619;DHT22;8928;51.678;6.074;2022-12-24T10:55:10;11.20;99.90
17619;DHT22;8928;51.678;6.074;2022-12-24T10:58:03;11.10;99.90
17619;DHT22;8928;51.678;6.074;2022-12-24T11:00:52;11.00;99.90
17619;DHT22;8928;51.678;6.074;2022-12-24T11:03:39;11.00;99.90
17619;DHT22;8928;51.678;6.074;2022-12-24T11:06:27;10.90;99.90
17619;DHT22;8928;51.678;6.074;2022-12-24T11:09:20;10.90;99.90
17619;DHT22;8928;51.678;6.074;2022-12-24T11:12:17;11.00;99.90
17619;DHT22;8928;51.678;6.074;2022-12-24T11:15:16;11.00;99.90
17619;DHT22;8928;51.678;6.074;2022-12-24T11:18:11;10.90;99.90
17619;DHT22;8928;51.678;6.074;2022-12-24T11:20:59;10.80;99.90
17619;DHT22;8928;51.678;6.074;2022-12-24T11:23:49;10.80;99.90
17619;DHT22;8928;51.678;6.074;2022-12-24T11:26:37;10.90;99.90
17619;DHT22;8928;51.678;6.074;2022-12-24T11:29:26;11.10;99.90
17619;DHT22;8928;51.678;6.074;2022-12-24T11:32:19;11.40;99.90
17619;DHT22;8928;51.678;6.074;2022-12-24T11:35:11;11.50;99.90
17619;DHT22;8928;51.678;6.074;2022-12-24T11:38:09;11.60;99.90
17619;DHT22;8928;51.678;6.074;2022-12-24T11:41:03;11.50;99.90
17619;DHT22;8928;51.678;6.074;2022-12-24T11:43:58;11.60;99.90
17619;DHT22;8928;51.678;6.074;2022-12-24T11:46:48;11.60;99.90
17619;DHT22;8928;51.678;6.074;2022-12-24T11:49:39;11.70;99.90
17619;DHT22;8928;51.678;6.074;2022-12-24T11:52:27;11.80;99.90
17619;DHT22;8928;51.678;6.074;2022-12-24T11:55:23;11.90;99.90
17619;DHT22;8928;51.678;6.074;2022-12-24T11:58:19;11.80;99.90
17619;DHT22;8928;51.678;6.074;2022-12-24T12:01:15;11.80;99.90
17619;DHT22;8928;51.678;6.074;2022-12-24T12:04:05;11.60;99.90
17619;DHT22;8928;51.678;6.074;2022-12-24T12:06:57;11.70;99.90
17619;DHT22;8928;51.678;6.074;2022-12-24T12:09:49;11.80;99.90
17619;DHT22;8928;51.678;6.074;2022-12-24T12:12:41;11.60;99.90
17619;DHT22;8928;51.678;6.074;2022-12-24T12:15:32;11.50;99.90
17619;DHT22;8928;51.678;6.074;2022-12-24T12:18:23;11.40;99.90
17619;DHT22;8928;51.678;6.074;2022-12-24T12:21:16;11.20;99.90
17619;DHT22;8928;51.678;6.074;2022-12-24T12:24:11;11.10;99.90
17619;DHT22;8928;51.678;6.074;2022-12-24T12:27:06;11.10;99.90
17619;DHT22;8928;51.678;6.074;2022-12-24T12:29:59;11.10;99.90
17619;DHT22;8928;51.678;6.074;2022-12-24T12:32:51;11.20;99.90
17619;DHT22;8928;51.678;6.074;2022-12-24T12:35:41;11.30;99.90
17619;DHT22;8928;51.678;6.074;2022-12-24T12:38:29;11.20;99.90
17619;DHT22;8928;51.678;6.074;2022-12-24T12:41:30;11.30;99.90
17619;DHT22;8928;51.678;6.074;2022-12-24T12:44:38;11.60;99.90
17619;DHT22;8928;51.678;6.074;2022-12-24T12:50:48;11.90;99.90
17619;DHT22;8928;51.678;6.074;2022-12-24T12:53:49;11.90;99.90
17619;DHT22;8928;51.678;6.074;2022-12-24T12:56:43;11.90;99.90
17619;DHT22;8928;51.678;6.074;2022-12-24T12:59:35;11.80;99.90
17619;DHT22;8928;51.678;6.074;2022-12-24T13:02:43;11.70;99.90
17619;DHT22;8928;51.678;6.074;2022-12-24T13:05:58;11.70;99.90
17619;DHT22;8928;51.678;6.074;2022-12-24T13:09:15;11.80;99.90
17619;DHT22;8928;51.678;6.074;2022-12-24T13:12:23;11.70;99.90
17619;DHT22;8928;51.678;6.074;2022-12-24T13:15:45;11.70;99.90
17619;DHT22;8928;51.678;6.074;2022-12-24T13:18:46;11.60;99.90
17619;DHT22;8928;51.678;6.074;2022-12-24T13:21:42;11.40;99.90
17619;DHT22;8928;51.678;6.074;2022-12-24T13:24:30;11.30;99.90
17619;DHT22;8928;51.678;6.074;2022-12-24T13:27:22;11.20;99.90
17619;DHT22;8928;51.678;6.074;2022-12-24T13:30:33;11.30;99.90
17619;DHT22;8928;51.678;6.074;2022-12-24T13:33:47;11.30;99.90
17619;DHT22;8928;51.678;6.074;2022-12-24T13:37:00;11.30;99.90
17619;DHT22;8928;51.678;6.074;2022-12-24T13:40:02;11.40;99.90
17619;DHT22;8928;51.678;6.074;2022-12-24T13:43:18;11.50;99.90
17619;DHT22;8928;51.678;6.074;2022-12-24T13:46:06;11.60;99.90
17619;DHT22;8928;51.678;6.074;2022-12-24T13:48:53;11.60;99.90
17619;DHT22;8928;51.678;6.074;2022-12-24T13:51:40;11.40;99.90
17619;DHT22;8928;51.678;6.074;2022-12-24T13:54:27;11.30;99.90
17619;DHT22;8928;51.678;6.074;2022-12-24T13:57:36;11.40;99.90
17619;DHT22;8928;51.678;6.074;2022-12-24T14:00:32;11.50;99.90
17619;DHT22;8928;51.678;6.074;2022-12-24T14:03:25;11.50;99.90
17619;DHT22;8928;51.678;6.074;2022-12-24T14:06:21;11.60;99.90
17619;DHT22;8928;51.678;6.074;2022-12-24T14:09:11;11.60;99.90
17619;DHT22;8928;51.678;6.074;2022-12-24T14:16:08;11.30;99.90
17619;DHT22;8928;51.678;6.074;2022-12-24T14:18:59;11.20;99.90
17619;DHT22;8928;51.678;6.074;2022-12-24T14:21:54;11.20;99.90
17619;DHT22;8928;51.678;6.074;2022-12-24T14:24:43;11.10;99.90
17619;DHT22;8928;51.678;6.074;2022-12-24T14:27:36;11.00;99.90
17619;DHT22;8928;51.678;6.074;2022-12-24T14:30:25;10.90;99.90
17619;DHT22;8928;51.678;6.074;2022-12-24T14:33:29;10.80;99.90
17619;DHT22;8928;51.678;6.074;2022-12-24T14:36:21;10.60;99.90
17619;DHT22;8928;51.678;6.074;2022-12-24T14:39:15;10.50;99.90
17619;DHT22;8928;51.678;6.074;2022-12-24T14:42:20;10.40;99.90
17619;DHT22;8928;51.678;6.074;2022-12-24T14:45:20;10.30;99.90
17619;DHT22;8928;51.678;6.074;2022-12-24T14:48:16;10.30;99.90
17619;DHT22;8928;51.678;6.074;2022-12-24T14:51:14;10.20;99.90
17619;DHT22;8928;51.678;6.074;2022-12-24T14:54:30;10.10;99.90
17619;DHT22;8928;51.678;6.074;2022-12-24T14:57:21;9.90;99.90
17619;DHT22;8928;51.678;6.074;2022-12-24T15:00:17;9.60;99.90
17619;DHT22;8928;51.678;6.074;2022-12-24T15:03:11;9.40;99.90
17619;DHT22;8928;51.678;6.074;2022-12-24T15:06:01;9.20;99.90
17619;DHT22;8928;51.678;6.074;2022-12-24T15:08:51;9.00;99.90
17619;DHT22;8928;51.678;6.074;2022-12-24T15:11:38;8.80;99.90
17619;DHT22;8928;51.678;6.074;2022-12-24T15:14:30;8.60;99.90
17619;DHT22;8928;51.678;6.074;2022-12-24T15:17:20;8.40;99.90
17619;DHT22;8928;51.678;6.074;2022-12-24T15:20:12;8.20;99.90
17619;DHT22;8928;51.678;6.074;2022-12-24T15:23:00;8.00;99.90
17619;DHT22;8928;51.678;6.074;2022-12-24T15:25:48;7.80;99.90
17619;DHT22;8928;51.678;6.074;2022-12-24T15:28:36;7.70;99.90
17619;DHT22;8928;51.678;6.074;2022-12-24T15:31:25;7.50;99.90
17619;DHT22;8928;51.678;6.074;2022-12-24T15:34:25;7.40;99.90
17619;DHT22;8928;51.678;6.074;2022-12-24T15:37:16;7.30;99.90
17619;DHT22;8928;51.678;6.074;2022-12-24T15:40:07;7.20;99.90
17619;DHT22;8928;51.678;6.074;2022-12-24T15:42:56;7.00;99.90
17619;DHT22;8928;51.678;6.074;2022-12-24T15:45:44;6.90;99.90
17619;DHT22;8928;51.678;6.074;2022-12-24T15:48:33;6.80;99.90
17619;DHT22;8928;51.678;6.074;2022-12-24T15:51:24;6.70;99.90
17619;DHT22;8928;51.678;6.074;2022-12-24T15:54:15;6.60;99.90
17619;DHT22;8928;51.678;6.074;2022-12-24T15:57:12;6.50;99.90
17619;DHT22;8928;51.678;6.074;2022-12-24T16:00:17;6.40;99.90
17619;DHT22;8928;51.678;6.074;2022-12-24T16:03:11;6.40;99.90
17619;DHT22;8928;51.678;6.074;2022-12-24T16:06:03;6.20;99.90
17619;DHT22;8928;51.678;6.074;2022-12-24T16:08:51;6.20;99.90
17619;DHT22;8928;51.678;6.074;2022-12-24T16:11:38;6.10;99.90
17619;DHT22;8928;51.678;6.074;2022-12-24T16:14:25;6.00;99.90
17619;DHT22;8928;51.678;6.074;2022-12-24T16:17:20;6.00;99.90
17619;DHT22;8928;51.678;6.074;2022-12-24T16:20:15;6.00;99.90
17619;DHT22;8928;51.678;6.074;2022-12-24T16:23:04;5.90;99.90
17619;DHT22;8928;51.678;6.074;2022-12-24T16:25:51;5.90;99.90
17619;DHT22;8928;51.678;6.074;2022-12-24T16:28:38;5.90;99.90
17619;DHT22;8928;51.678;6.074;2022-12-24T16:31:30;5.80;99.90
17619;DHT22;8928;51.678;6.074;2022-12-24T16:34:22;5.80;99.90
17619;DHT22;8928;51.678;6.074;2022-12-24T16:37:09;5.80;99.90
17619;DHT22;8928;51.678;6.074;2022-12-24T16:39:57;5.70;99.90
17619;DHT22;8928;51.678;6.074;2022-12-24T16:42:44;5.70;99.90
17619;DHT22;8928;51.678;6.074;2022-12-24T16:45:49;5.70;99.90
17619;DHT22;8928;51.678;6.074;2022-12-24T16:48:36;5.70;99.90
17619;DHT22;8928;51.678;6.074;2022-12-24T16:51:25;5.70;99.90
17619;DHT22;8928;51.678;6.074;2022-12-24T16:54:13;5.60;99.90
17619;DHT22;8928;51.678;6.074;2022-12-24T16:57:00;5.60;99.90
17619;DHT22;8928;51.678;6.074;2022-12-24T16:59:47;5.60;99.90
17619;DHT22;8928;51.678;6.074;2022-12-24T17:02:34;5.60;99.90
17619;DHT22;8928;51.678;6.074;2022-12-24T17:05:21;5.60;99.90
17619;DHT22;8928;51.678;6.074;2022-12-24T17:08:10;5.60;99.90
17619;DHT22;8928;51.678;6.074;2022-12-24T17:10:58;5.60;99.90
17619;DHT22;8928;51.678;6.074;2022-12-24T17:13:45;5.60;99.90
17619;DHT22;8928;51.678;6.074;2022-12-24T17:16:32;5.60;99.90
17619;DHT22;8928;51.678;6.074;2022-12-24T17:19:19;5.60;99.90
17619;DHT22;8928;51.678;6.074;2022-12-24T17:22:06;5.60;99.90
17619;DHT22;8928;51.678;6.074;2022-12-24T17:24:54;5.50;99.90
17619;DHT22;8928;51.678;6.074;2022-12-24T17:27:42;5.50;99.90
17619;DHT22;8928;51.678;6.074;2022-12-24T17:30:29;5.50;99.90
17619;DHT22;8928;51.678;6.074;2022-12-24T17:33:16;5.50;99.90
17619;DHT22;8928;51.678;6.074;2022-12-24T17:36:03;5.50;99.90
17619;DHT22;8928;51.678;6.074;2022-12-24T17:38:51;5.50;99.90
17619;DHT22;8928;51.678;6.074;2022-12-24T17:41:39;5.40;99.90
17619;DHT22;8928;51.678;6.074;2022-12-24T17:44:26;5.40;99.90
17619;DHT22;8928;51.678;6.074;2022-12-24T17:47:13;5.40;99.90
17619;DHT22;8928;51.678;6.074;2022-12-24T17:50:00;5.40;99.90
17619;DHT22;8928;51.678;6.074;2022-12-24T17:52:47;5.40;99.90
17619;DHT22;8928;51.678;6.074;2022-12-24T17:55:38;5.40;99.90
17619;DHT22;8928;51.678;6.074;2022-12-24T17:58:27;5.40;99.90
17619;DHT22;8928;51.678;6.074;2022-12-24T18:01:16;5.40;99.90
17619;DHT22;8928;51.678;6.074;2022-12-24T18:04:04;5.40;99.90
17619;DHT22;8928;51.678;6.074;2022-12-24T18:06:51;5.30;99.90
17619;DHT22;8928;51.678;6.074;2022-12-24T18:09:38;5.30;99.90
17619;DHT22;8928;51.678;6.074;2022-12-24T18:12:25;5.30;99.90
17619;DHT22;8928;51.678;6.074;2022-12-24T18:15:17;5.30;99.90
17619;DHT22;8928;51.678;6.074;2022-12-24T18:18:05;5.30;99.90
17619;DHT22;8928;51.678;6.074;2022-12-24T18:20:52;5.30;99.90
17619;DHT22;8928;51.678;6.074;2022-12-24T18:23:41;5.30;99.90
17619;DHT22;8928;51.678;6.074;2022-12-24T18:26:29;5.30;99.90
17619;DHT22;8928;51.678;6.074;2022-12-24T18:29:17;5.30;99.90
17619;DHT22;8928;51.678;6.074;2022-12-24T18:32:06;5.30;99.90